Latest Coastal Weather Observations for Bundaberg

IDQ60701

Issued at 10:25 am EST Thursday 2 October 2014 (issued every 10 minutes, with the page automatically refreshed every 10 minutes)

About coastal observations | Map of coastal stations | Coastal observations for QLD | Marine services | Other Formats
Station Details ID: 039128 Name: BUNDABERG AERO Lat: -24.91 Lon: 152.32 Height: 30.82 m
Data from the previous 72 hours. | See also: Recent months at Bundaberg
Date/Time
EST
Temp

°C
Wind Pressure Rain
since 9am
mm
Weather Cloud Vis
km
Sea
Height
m
Swell
Dir
 
Speed
knots
Gust
knots
hPa Trend Height
m
Period
s
Dir
02/10:00am 23.6 ESE 17 23 1020.3 - 0.0 - Partly cloudy 10 - - - -
02/09:30am 23.9 ESE 19 24 1020.3 - 0.0 - Cloudy 10 - - - -
02/09:00am 23.2 ESE 18 23 1020.3 - 0.0 - Cloudy 10 - - - -
02/08:30am 22.3 SE 18 24 1020.3 - 0.0 - Cloudy 10 - - - -
02/08:00am 22.6 SE 16 21 1020.1 - 0.0 - Partly cloudy 10 - - - -
02/07:30am 21.5 SE 15 21 1020.0 - 0.0 - Cloudy 10 - - - -
02/07:00am 20.5 SSE 9 13 1019.7 - 0.0 - Cloudy 10 - - - -
02/06:30am 19.7 SSE 8 13 1019.4 - 0.0 - Partly cloudy 10 - - - -
02/06:00am 19.2 SSE 9 12 1018.9 - 0.0 - Cloudy 10 - - - -
02/05:30am 18.5 SSE 6 10 1018.6 - 0.0 - Partly cloudy 10 - - - -
02/05:00am 18.6 SSE 8 13 1018.1 - 0.0 - Partly cloudy 10 - - - -
02/04:30am 18.0 SSE 6 9 1017.7 - 0.0 - Cloudy 10 - - - -
02/04:00am 17.6 SSE 6 7 1017.3 - 0.0 - Partly cloudy 10 - - - -
02/03:30am 17.2 S 6 8 1017.1 - 0.0 - Partly cloudy 10 - - - -
02/03:00am 17.2 SSE 7 9 1016.8 - 0.0 - Mostly cloudy 10 - - - -
02/02:30am 16.8 SSE 9 12 1016.7 - 0.0 - Partly cloudy 10 - - - -
02/02:00am 15.8 SE 9 11 1016.8 - 0.0 - - 10 - - - -
02/01:30am 16.3 SSE 7 10 1016.8 - 0.0 - - 10 - - - -
02/01:00am 16.7 SSE 6 8 1016.9 - 0.0 - - 10 - - - -
02/12:30am 16.7 NNW 2 5 1016.1 - 0.0 - - 10 - - - -
02/12:00am 16.3 NNW 5 6 1015.9 - 0.0 - - 10 - - - -
 
Date/Time
EST
Temp

°C
Wind Pressure Rain
since 9am
mm
Weather Cloud Vis
km
Sea
Height
m
Swell
Dir
 
Speed
knots
Gust
knots
hPa Trend Height
m
Period
s
Dir
01/11:30pm 17.2 W 3 5 1016.1 - 0.0 - - 10 - - - -
01/11:00pm 18.1 WSW 6 10 1016.1 - 0.0 - - 10 - - - -
01/10:30pm 18.5 NW 7 9 1015.4 - 0.0 - - 10 - - - -
01/10:00pm 18.7 NNW 8 9 1015.3 - 0.0 - - 10 - - - -
01/09:30pm 19.3 NNW 9 11 1015.3 - 0.0 - - 10 - - - -
01/09:00pm 19.6 N 10 12 1015.3 - 0.0 - - 10 - - - -
01/08:30pm 19.6 N 10 12 1015.3 - 0.0 - - 10 - - - -
01/08:00pm 20.0 N 11 14 1015.3 - 0.0 - - 10 - - - -
01/07:30pm 20.1 N 11 14 1015.2 - 0.0 - - 10 - - - -
01/07:00pm 20.6 N 12 16 1014.9 - 0.0 - - 10 - - - -
01/06:30pm 20.7 N 13 15 1014.8 - 0.0 - - 10 - - - -
01/06:00pm 21.2 N 13 17 1014.7 - 0.0 - - 10 - - - -
01/05:30pm 21.9 N 17 21 1014.5 - 0.0 - - 10 - - - -
01/05:00pm 22.8 N 17 20 1014.3 - 0.0 - - 10 - - - -
01/04:30pm 24.0 N 17 21 1014.4 - 0.0 - - 10 - - - -
01/04:00pm 24.4 N 17 21 1014.3 - 0.0 - - 10 - - - -
01/03:30pm 25.2 N 17 20 1014.3 - 0.0 - - 10 - - - -
01/03:00pm 25.3 N 16 21 1014.5 - 0.0 - - 10 - - - -
01/02:30pm 26.0 N 16 19 1014.7 - 0.0 - - 10 - - - -
01/02:00pm 26.3 N 14 17 1015.1 - 0.0 - - 10 - - - -
01/01:30pm 26.1 N 12 16 1015.6 - 0.0 - - 10 - - - -
01/01:00pm 26.7 N 13 16 1016.2 - 0.0 - - 10 - - - -
01/12:30pm 26.0 N 11 15 1016.5 - 0.0 - - 10 - - - -
01/12:00pm 25.8 N 12 17 1016.8 - 0.0 - - 10 - - - -
01/11:30am 26.3 N 11 15 1017.2 - 0.0 - - 10 - - - -
01/11:00am 26.8 N 9 15 1017.8 - 0.0 - - 10 - - - -
01/10:30am 25.8 NW 8 11 1018.3 - 0.0 - - 10 - - - -
01/10:00am 25.1 NNW 10 12 1018.7 - 0.0 - - 10 - - - -
01/09:30am 24.1 NNW 10 15 1019.0 - 0.0 - - 10 - - - -
01/09:00am 23.2 NW 11 16 1019.2 - 0.0 - - 10 - - - -
01/08:30am 22.9 NW 11 16 1019.2 - 0.0 - - 10 - - - -
01/08:00am 22.4 NW 12 15 1019.2 - 0.0 - - 10 - - - -
01/07:30am 20.7 NW 9 12 1019.2 - 0.0 - - 10 - - - -
01/07:00am 18.3 NW 8 11 1019.1 - 0.0 - - 10 - - - -
01/06:30am 16.6 NW 6 8 1018.9 - 0.0 - - 10 - - - -
01/06:00am 14.8 NW 6 7 1018.8 - 0.0 - - 10 - - - -
01/05:30am 13.6 NW 6 7 1018.7 - 0.0 - - 10 - - - -
01/05:00am 13.5 WNW 5 6 1018.8 - 0.0 - - 10 - - - -
01/04:30am 14.3 NW 5 7 1018.3 - 0.0 - - 10 - - - -
01/04:00am 13.9 NW 6 7 1018.2 - 0.0 - - 10 - - - -
01/03:30am 14.2 WNW 4 5 1018.4 - 0.0 - - 10 - - - -
01/03:00am 14.4 NW 4 5 1018.5 - 0.0 - - 10 - - - -
01/02:30am 14.1 W 5 5 1018.6 - 0.0 - - 10 - - - -
01/02:00am 14.5 WNW 4 4 1018.7 - 0.0 - - 10 - - - -
01/01:30am 14.7 WNW 4 5 1018.9 - 0.0 - - 10 - - - -
01/01:00am 14.0 NW 4 5 1019.1 - 0.0 - - 10 - - - -
01/12:30am 15.4 WNW 4 5 1019.3 - 0.0 - - 10 - - - -
01/12:00am 15.1 NNW 5 6 1019.5 - 0.0 - - 10 - - - -
 
Date/Time
EST
Temp

°C
Wind Pressure Rain
since 9am
mm
Weather Cloud Vis
km
Sea
Height
m
Swell
Dir
 
Speed
knots
Gust
knots
hPa Trend Height
m
Period
s
Dir
30/11:30pm 15.6 N 4 5 1019.6 - 0.0 - - 10 - - - -
30/11:00pm 16.2 N 4 6 1019.7 - 0.0 - - 10 - - - -
30/10:30pm 17.9 N 6 7 1019.8 - 0.0 - - 10 - - - -
30/10:00pm 16.3 N 5 6 1019.8 - 0.0 - - 10 - - - -
30/09:30pm 17.2 N 4 6 1019.9 - 0.0 - - 10 - - - -
30/09:00pm 18.8 N 7 8 1019.9 - 0.0 - - 10 - - - -
30/08:30pm 19.0 N 7 8 1019.8 - 0.0 - - 10 - - - -
30/08:00pm 19.4 N 7 9 1019.6 - 0.0 - - 10 - - - -
30/07:30pm 19.5 N 6 8 1019.2 - 0.0 - - 10 - - - -
30/07:00pm 19.9 N 7 9 1019.0 - 0.0 - - 10 - - - -
30/06:30pm 20.4 N 7 10 1018.7 - 0.0 - - 10 - - - -
30/06:00pm 21.0 N 11 13 1018.4 - 0.0 - - 10 - - - -
30/05:30pm 21.5 NNE 9 12 1018.3 - 0.0 - - 10 - - - -
30/05:00pm 22.5 N 11 13 1018.1 - 0.0 - - 10 - - - -
30/04:30pm 23.2 N 10 13 1018.0 - 0.0 - - 10 - - - -
30/04:00pm 23.4 N 11 15 1017.9 - 0.0 - - 10 - - - -
30/03:30pm 23.9 NNE 11 15 1017.8 - 0.0 - - 10 - - - -
30/03:00pm 25.2 NE 11 13 1017.9 - 0.0 - - 10 - - - -
30/02:30pm 26.0 NNE 9 15 1018.2 - 0.0 - - 10 - - - -
30/02:00pm 24.6 N 10 12 1018.5 - 0.0 - - 10 - - - -
30/01:30pm 25.3 NNE 10 15 1018.8 - 0.0 - - 10 - - - -
30/01:00pm 25.4 N 10 15 1019.1 - 0.0 - Partly cloudy 10 - - - -
30/12:30pm 25.2 N 9 16 1019.4 - 0.0 - Partly cloudy 10 - - - -
30/12:00pm 24.4 N 11 13 1020.0 - 0.0 - Partly cloudy 10 - - - -
30/11:30am 24.5 NNE 11 15 1020.4 - 0.0 - Partly cloudy 10 - - - -
30/11:00am 24.9 N 9 16 1020.8 - 0.0 - Partly cloudy 10 - - - -
30/10:30am 23.6 N 9 13 1021.0 - 0.0 - Partly cloudy 10 - - - -
30/10:00am 23.9 N 7 12 1021.3 - 0.0 - Partly cloudy 10 - - - -
30/09:30am 24.3 NNE 7 15 1021.5 - 0.0 - - 10 - - - -
30/09:00am 22.5 N 6 10 1021.6 - 0.0 - Mostly clear 10 - - - -
30/08:30am 22.4 N 5 9 1021.6 - 0.0 - - 10 - - - -
30/08:00am 21.2 N 3 6 1021.4 - 0.0 - - 10 - - - -
30/07:30am 19.0 CALM 0 3 1021.3 - 0.0 - - 10 - - - -
30/07:00am 16.7 SSW 1 3 1021.1 - 0.0 - - 10 - - - -
30/06:30am 14.4 CALM 0 0 1020.9 - 0.0 - - 10 - - - -
30/06:00am 12.1 CALM 0 0 1020.6 - 0.0 - - 10 - - - -
30/05:30am 11.5 CALM 0 0 1020.3 - 0.0 - - 10 - - - -
30/05:00am 11.9 CALM 0 3 1020.1 - 0.0 - - 10 - - - -
30/04:30am 11.9 CALM 0 0 1019.7 - 0.0 - - 10 - - - -
30/04:00am 12.1 CALM 0 0 1019.4 - 0.0 - - 10 - - - -
30/03:30am 11.9 CALM 0 0 1019.3 - 0.0 - - 10 - - - -
30/03:00am 12.0 CALM 0 0 1019.3 - 0.0 - - 10 - - - -
30/02:30am 12.3 CALM 0 0 1019.5 - 0.0 - - 10 - - - -
30/02:00am 12.4 CALM 0 0 1019.6 - 0.0 - - 10 - - - -
30/01:30am 13.0 CALM 0 3 1019.6 - 0.0 - - 10 - - - -
30/01:00am 13.3 CALM 0 0 1019.9 - 0.0 - - 10 - - - -
30/12:30am 13.4 CALM 0 0 1020.1 - 0.0 - - 10 - - - -
30/12:00am 13.7 CALM 0 3 1020.2 - 0.0 - - 10 - - - -
 
Date/Time
EST
Temp

°C
Wind Pressure Rain
since 9am
mm
Weather Cloud Vis
km
Sea
Height
m
Swell
Dir
 
Speed
knots
Gust
knots
hPa Trend Height
m
Period
s
Dir
29/11:30pm 13.6 W 3 5 1020.3 - 0.0 - - 10 - - - -
29/11:00pm 13.9 CALM 0 0 1020.5 - 0.0 - - 10 - - - -
29/10:30pm 14.3 CALM 0 0 1020.4 - 0.0 - - 10 - - - -
29/10:00pm 15.4 CALM 0 0 1020.5 - 0.0 - - 10 - - - -
29/09:30pm 15.5 CALM 0 0 1020.4 - 0.0 - - 10 - - - -
29/09:00pm 16.4 CALM 0 0 1020.4 - 0.0 - - 10 - - - -
29/08:30pm 17.7 NE 3 4 1020.5 - 0.0 - - 10 - - - -
29/08:00pm 18.4 NE 4 5 1020.3 - 0.0 - - 10 - - - -
29/07:30pm 18.7 NE 5 7 1020.0 - 0.0 - - 10 - - - -
29/07:00pm 19.2 NE 5 7 1019.5 - 0.0 - - 10 - - - -
29/06:30pm 20.0 NNE 8 10 1019.1 - 0.0 - - 10 - - - -
29/06:00pm 20.4 NNE 9 11 1018.7 - 0.0 - - 10 - - - -
29/05:30pm 21.1 NNE 9 12 1018.5 - 0.0 - - 10 - - - -
29/05:00pm 22.2 NE 10 13 1018.1 - 0.0 - - 10 - - - -
29/04:30pm 23.2 NE 10 14 1017.9 - 0.0 - - 10 - - - -
29/04:00pm 23.7 NE 11 14 1017.8 - 0.0 - - 10 - - - -
29/03:30pm 24.7 ENE 11 15 1017.8 - 0.0 - - 10 - - - -
29/03:00pm 24.7 E 11 15 1017.7 - 0.0 - - 10 - - - -
29/02:30pm 24.7 NE 12 17 1017.8 - 0.0 - - 10 - - - -
29/02:00pm 25.0 ENE 12 16 1017.9 - 0.0 - - 10 - - - -
29/01:30pm 25.6 E 11 13 1018.1 - 0.0 - - 10 - - - -
29/01:00pm 25.1 E 9 13 1018.6 - 0.0 - - 10 - - - -
29/12:30pm 24.5 E 9 15 1019.0 - 0.0 - Partly cloudy 10 - - - -
29/12:00pm 24.9 E 8 15 1019.5 - 0.0 - - 10 - - - -
29/11:30am 24.2 SE 8 14 1020.0 - 0.0 - - 10 - - - -
29/11:00am 23.8 ESE 8 13 1020.5 - 0.0 - Partly cloudy 10 - - - -
29/10:30am 24.2 ENE 9 13 1020.8 - 0.0 - Partly cloudy 10 - - - -

Other Formats:

Comma delimited format used in spreadsheet applications
http://www.bom.gov.au/fwo/IDQ60701/IDQ60701.94387.axf

JavaScript Object Notation format (JSON) in row-major order
http://www.bom.gov.au/fwo/IDQ60701/IDQ60701.94387.json